sensor_id;sensor_type;location;lat;lon;timestamp;temperature;humidity
318;DHT22;146;53.448;10.228;2023-12-14T00:01:18;4.30;1.00
318;DHT22;146;53.448;10.228;2023-12-14T00:03:53;4.30;1.00
318;DHT22;146;53.448;10.228;2023-12-14T00:06:29;4.40;1.00
318;DHT22;146;53.448;10.228;2023-12-14T00:08:58;4.30;1.00
318;DHT22;146;53.448;10.228;2023-12-14T00:11:25;4.30;1.00
318;DHT22;146;53.448;10.228;2023-12-14T00:13:52;4.30;1.00
318;DHT22;146;53.448;10.228;2023-12-14T00:16:18;4.40;1.00
318;DHT22;146;53.448;10.228;2023-12-14T00:18:46;4.40;1.00
318;DHT22;146;53.448;10.228;2023-12-14T00:21:20;4.40;1.00
318;DHT22;146;53.448;10.228;2023-12-14T00:23:47;4.50;1.00
318;DHT22;146;53.448;10.228;2023-12-14T00:26:19;4.50;1.00
318;DHT22;146;53.448;10.228;2023-12-14T00:28:49;4.50;1.00
318;DHT22;146;53.448;10.228;2023-12-14T00:31:16;4.40;1.00
318;DHT22;146;53.448;10.228;2023-12-14T00:33:46;4.40;1.00
318;DHT22;146;53.448;10.228;2023-12-14T00:36:21;4.30;1.00
318;DHT22;146;53.448;10.228;2023-12-14T00:38:48;4.30;1.00
318;DHT22;146;53.448;10.228;2023-12-14T00:41:14;4.30;1.00
318;DHT22;146;53.448;10.228;2023-12-14T00:43:41;4.40;1.00
318;DHT22;146;53.448;10.228;2023-12-14T00:46:08;4.40;1.00
318;DHT22;146;53.448;10.228;2023-12-14T00:48:39;4.50;1.00
318;DHT22;146;53.448;10.228;2023-12-14T00:51:06;4.50;1.00
318;DHT22;146;53.448;10.228;2023-12-14T00:53:34;4.50;1.00
318;DHT22;146;53.448;10.228;2023-12-14T00:56:02;4.60;1.00
318;DHT22;146;53.448;10.228;2023-12-14T00:58:31;4.60;1.00
318;DHT22;146;53.448;10.228;2023-12-14T01:01:00;4.60;1.00
318;DHT22;146;53.448;10.228;2023-12-14T01:03:30;4.60;1.00
318;DHT22;146;53.448;10.228;2023-12-14T01:05:57;4.60;1.00
318;DHT22;146;53.448;10.228;2023-12-14T01:08:27;4.50;1.00
318;DHT22;146;53.448;10.228;2023-12-14T01:10:55;4.50;1.00
318;DHT22;146;53.448;10.228;2023-12-14T01:13:22;4.50;1.00
318;DHT22;146;53.448;10.228;2023-12-14T01:15:52;4.60;1.00
318;DHT22;146;53.448;10.228;2023-12-14T01:18:18;4.50;1.00
318;DHT22;146;53.448;10.228;2023-12-14T01:20:45;4.60;1.00
318;DHT22;146;53.448;10.228;2023-12-14T01:23:12;4.60;1.00
318;DHT22;146;53.448;10.228;2023-12-14T01:25:39;4.70;1.00
318;DHT22;146;53.448;10.228;2023-12-14T01:28:10;4.70;1.00
318;DHT22;146;53.448;10.228;2023-12-14T01:30:39;4.70;1.00
318;DHT22;146;53.448;10.228;2023-12-14T01:33:06;4.70;1.00
318;DHT22;146;53.448;10.228;2023-12-14T01:35:33;4.70;1.00
318;DHT22;146;53.448;10.228;2023-12-14T01:37:59;4.70;1.00
318;DHT22;146;53.448;10.228;2023-12-14T01:40:26;4.60;1.00
318;DHT22;146;53.448;10.228;2023-12-14T01:42:53;4.60;1.00
318;DHT22;146;53.448;10.228;2023-12-14T01:45:21;4.60;1.00
318;DHT22;146;53.448;10.228;2023-12-14T01:47:48;4.60;1.00
318;DHT22;146;53.448;10.228;2023-12-14T01:50:15;4.60;1.00
318;DHT22;146;53.448;10.228;2023-12-14T01:52:41;4.80;1.00
318;DHT22;146;53.448;10.228;2023-12-14T01:55:11;4.80;1.00
318;DHT22;146;53.448;10.228;2023-12-14T01:57:40;4.80;1.00
318;DHT22;146;53.448;10.228;2023-12-14T02:00:15;4.80;1.00
318;DHT22;146;53.448;10.228;2023-12-14T02:02:49;4.80;1.00
318;DHT22;146;53.448;10.228;2023-12-14T02:05:23;4.80;1.00
318;DHT22;146;53.448;10.228;2023-12-14T02:07:50;4.70;1.00
318;DHT22;146;53.448;10.228;2023-12-14T02:10:17;4.70;1.00
318;DHT22;146;53.448;10.228;2023-12-14T02:12:47;4.80;1.00
318;DHT22;146;53.448;10.228;2023-12-14T02:15:16;4.80;1.00
318;DHT22;146;53.448;10.228;2023-12-14T02:17:43;4.80;1.00
318;DHT22;146;53.448;10.228;2023-12-14T02:20:14;4.90;1.00
318;DHT22;146;53.448;10.228;2023-12-14T02:22:52;4.90;1.00
318;DHT22;146;53.448;10.228;2023-12-14T02:25:19;4.90;1.00
318;DHT22;146;53.448;10.228;2023-12-14T02:27:50;4.90;1.00
318;DHT22;146;53.448;10.228;2023-12-14T02:30:18;5.00;1.00
318;DHT22;146;53.448;10.228;2023-12-14T02:32:45;5.00;1.00
318;DHT22;146;53.448;10.228;2023-12-14T02:35:12;5.10;1.00
318;DHT22;146;53.448;10.228;2023-12-14T02:37:39;5.20;1.00
318;DHT22;146;53.448;10.228;2023-12-14T02:40:11;5.20;1.00
318;DHT22;146;53.448;10.228;2023-12-14T02:42:37;5.10;1.00
318;DHT22;146;53.448;10.228;2023-12-14T02:45:06;5.20;1.00
318;DHT22;146;53.448;10.228;2023-12-14T02:47:36;5.20;1.00
318;DHT22;146;53.448;10.228;2023-12-14T02:50:03;5.10;1.00
318;DHT22;146;53.448;10.228;2023-12-14T02:52:30;5.20;1.00
318;DHT22;146;53.448;10.228;2023-12-14T02:54:57;5.10;1.00
318;DHT22;146;53.448;10.228;2023-12-14T02:57:25;5.20;1.00
318;DHT22;146;53.448;10.228;2023-12-14T02:59:52;5.20;1.00
318;DHT22;146;53.448;10.228;2023-12-14T03:02:19;5.10;1.00
318;DHT22;146;53.448;10.228;2023-12-14T03:04:46;5.10;1.00
318;DHT22;146;53.448;10.228;2023-12-14T03:07:12;5.10;1.00
318;DHT22;146;53.448;10.228;2023-12-14T03:09:40;5.20;1.00
318;DHT22;146;53.448;10.228;2023-12-14T03:12:10;5.10;1.00
318;DHT22;146;53.448;10.228;2023-12-14T03:14:38;5.20;1.00
318;DHT22;146;53.448;10.228;2023-12-14T03:17:06;5.00;1.00
318;DHT22;146;53.448;10.228;2023-12-14T03:19:38;5.00;1.00
318;DHT22;146;53.448;10.228;2023-12-14T03:22:05;5.00;1.00
318;DHT22;146;53.448;10.228;2023-12-14T03:24:32;5.00;1.00
318;DHT22;146;53.448;10.228;2023-12-14T03:26:58;5.00;1.00
318;DHT22;146;53.448;10.228;2023-12-14T03:29:26;5.00;1.00
318;DHT22;146;53.448;10.228;2023-12-14T03:31:55;5.00;1.00
318;DHT22;146;53.448;10.228;2023-12-14T03:34:21;5.00;1.00
318;DHT22;146;53.448;10.228;2023-12-14T03:36:48;5.00;1.00
318;DHT22;146;53.448;10.228;2023-12-14T03:39:15;4.90;1.00
318;DHT22;146;53.448;10.228;2023-12-14T03:41:43;4.80;1.00
318;DHT22;146;53.448;10.228;2023-12-14T03:44:10;4.90;1.00
318;DHT22;146;53.448;10.228;2023-12-14T03:46:36;4.90;1.00
318;DHT22;146;53.448;10.228;2023-12-14T03:49:05;4.90;1.00
318;DHT22;146;53.448;10.228;2023-12-14T03:51:34;5.00;1.00
318;DHT22;146;53.448;10.228;2023-12-14T03:54:01;4.90;1.00
318;DHT22;146;53.448;10.228;2023-12-14T03:56:28;4.80;1.00
318;DHT22;146;53.448;10.228;2023-12-14T03:58:55;4.80;1.00
318;DHT22;146;53.448;10.228;2023-12-14T04:01:22;4.80;1.00
318;DHT22;146;53.448;10.228;2023-12-14T04:03:49;4.80;1.00
318;DHT22;146;53.448;10.228;2023-12-14T04:06:17;4.80;1.00
318;DHT22;146;53.448;10.228;2023-12-14T04:08:47;4.90;1.00
318;DHT22;146;53.448;10.228;2023-12-14T04:11:14;4.90;1.00
318;DHT22;146;53.448;10.228;2023-12-14T04:13:40;4.90;1.00
318;DHT22;146;53.448;10.228;2023-12-14T04:16:07;5.00;1.00
318;DHT22;146;53.448;10.228;2023-12-14T04:18:34;4.90;1.00
318;DHT22;146;53.448;10.228;2023-12-14T04:21:03;4.80;1.00
318;DHT22;146;53.448;10.228;2023-12-14T04:23:31;4.90;1.00
318;DHT22;146;53.448;10.228;2023-12-14T04:25:58;4.80;1.00
318;DHT22;146;53.448;10.228;2023-12-14T04:28:28;4.80;1.00
318;DHT22;146;53.448;10.228;2023-12-14T04:30:55;4.80;1.00
318;DHT22;146;53.448;10.228;2023-12-14T04:33:24;5.00;1.00
318;DHT22;146;53.448;10.228;2023-12-14T04:35:51;5.00;1.00
318;DHT22;146;53.448;10.228;2023-12-14T04:38:18;5.00;1.00
318;DHT22;146;53.448;10.228;2023-12-14T04:40:46;5.00;1.00
318;DHT22;146;53.448;10.228;2023-12-14T04:43:13;5.10;1.00
318;DHT22;146;53.448;10.228;2023-12-14T04:45:40;5.10;1.00
318;DHT22;146;53.448;10.228;2023-12-14T04:48:07;5.10;1.00
318;DHT22;146;53.448;10.228;2023-12-14T04:50:34;5.20;1.00
318;DHT22;146;53.448;10.228;2023-12-14T04:53:00;5.20;1.00
318;DHT22;146;53.448;10.228;2023-12-14T04:55:27;5.20;1.00
318;DHT22;146;53.448;10.228;2023-12-14T04:57:55;5.20;1.00
318;DHT22;146;53.448;10.228;2023-12-14T05:00:25;5.20;1.00
318;DHT22;146;53.448;10.228;2023-12-14T05:02:52;5.10;1.00
318;DHT22;146;53.448;10.228;2023-12-14T05:05:19;5.20;1.00
318;DHT22;146;53.448;10.228;2023-12-14T05:07:46;5.10;1.00
318;DHT22;146;53.448;10.228;2023-12-14T05:10:16;5.00;1.00
318;DHT22;146;53.448;10.228;2023-12-14T05:12:42;4.90;1.00
318;DHT22;146;53.448;10.228;2023-12-14T05:15:11;4.90;1.00
318;DHT22;146;53.448;10.228;2023-12-14T05:17:38;4.90;1.00
318;DHT22;146;53.448;10.228;2023-12-14T05:20:08;4.90;1.00
318;DHT22;146;53.448;10.228;2023-12-14T05:22:35;5.00;1.00
318;DHT22;146;53.448;10.228;2023-12-14T05:25:01;5.00;1.00
318;DHT22;146;53.448;10.228;2023-12-14T05:27:35;4.90;1.00
318;DHT22;146;53.448;10.228;2023-12-14T05:30:03;4.90;1.00
318;DHT22;146;53.448;10.228;2023-12-14T05:32:31;4.90;1.00
318;DHT22;146;53.448;10.228;2023-12-14T05:34:57;4.90;1.00
318;DHT22;146;53.448;10.228;2023-12-14T05:37:25;4.90;1.00
318;DHT22;146;53.448;10.228;2023-12-14T05:39:51;4.80;1.00
318;DHT22;146;53.448;10.228;2023-12-14T05:42:18;4.90;1.00
318;DHT22;146;53.448;10.228;2023-12-14T05:44:45;4.90;1.00
318;DHT22;146;53.448;10.228;2023-12-14T05:47:12;5.00;1.00
318;DHT22;146;53.448;10.228;2023-12-14T05:49:42;5.10;1.00
318;DHT22;146;53.448;10.228;2023-12-14T05:52:09;5.20;1.00
318;DHT22;146;53.448;10.228;2023-12-14T05:54:36;5.20;1.00
318;DHT22;146;53.448;10.228;2023-12-14T05:57:03;5.20;1.00
318;DHT22;146;53.448;10.228;2023-12-14T05:59:30;5.30;1.00
318;DHT22;146;53.448;10.228;2023-12-14T06:01:57;5.20;1.00
318;DHT22;146;53.448;10.228;2023-12-14T06:04:24;5.40;1.00
318;DHT22;146;53.448;10.228;2023-12-14T06:06:52;5.40;1.00
318;DHT22;146;53.448;10.228;2023-12-14T06:09:19;5.20;1.00
318;DHT22;146;53.448;10.228;2023-12-14T06:11:50;5.20;1.00
318;DHT22;146;53.448;10.228;2023-12-14T06:14:17;5.10;1.00
318;DHT22;146;53.448;10.228;2023-12-14T06:16:44;5.00;1.00
318;DHT22;146;53.448;10.228;2023-12-14T06:19:14;5.00;1.00
318;DHT22;146;53.448;10.228;2023-12-14T06:21:41;4.90;1.00
318;DHT22;146;53.448;10.228;2023-12-14T06:24:09;4.90;1.00
318;DHT22;146;53.448;10.228;2023-12-14T06:26:40;5.00;1.00
318;DHT22;146;53.448;10.228;2023-12-14T06:29:07;5.00;1.00
318;DHT22;146;53.448;10.228;2023-12-14T06:31:34;5.10;1.00
318;DHT22;146;53.448;10.228;2023-12-14T06:34:03;5.10;1.00
318;DHT22;146;53.448;10.228;2023-12-14T06:36:30;5.10;1.00
318;DHT22;146;53.448;10.228;2023-12-14T06:39:01;5.20;1.00
318;DHT22;146;53.448;10.228;2023-12-14T06:41:30;5.30;1.00
318;DHT22;146;53.448;10.228;2023-12-14T06:43:57;5.20;1.00
318;DHT22;146;53.448;10.228;2023-12-14T06:46:26;5.20;1.00
318;DHT22;146;53.448;10.228;2023-12-14T06:48:53;5.00;1.00
318;DHT22;146;53.448;10.228;2023-12-14T06:51:23;5.00;1.00
318;DHT22;146;53.448;10.228;2023-12-14T06:53:50;5.00;1.00
318;DHT22;146;53.448;10.228;2023-12-14T06:56:20;5.00;1.00
318;DHT22;146;53.448;10.228;2023-12-14T06:58:48;5.00;1.00
318;DHT22;146;53.448;10.228;2023-12-14T07:01:18;5.00;1.00
318;DHT22;146;53.448;10.228;2023-12-14T07:03:45;5.00;1.00
318;DHT22;146;53.448;10.228;2023-12-14T07:06:12;5.00;1.00
318;DHT22;146;53.448;10.228;2023-12-14T07:08:39;5.10;1.00
318;DHT22;146;53.448;10.228;2023-12-14T07:11:07;5.00;1.00
318;DHT22;146;53.448;10.228;2023-12-14T07:13:33;5.00;1.00
318;DHT22;146;53.448;10.228;2023-12-14T07:16:05;5.00;1.00
318;DHT22;146;53.448;10.228;2023-12-14T07:18:41;4.90;1.00
318;DHT22;146;53.448;10.228;2023-12-14T07:21:11;5.00;1.00
318;DHT22;146;53.448;10.228;2023-12-14T07:23:45;5.00;1.00
318;DHT22;146;53.448;10.228;2023-12-14T07:26:18;5.00;1.00
318;DHT22;146;53.448;10.228;2023-12-14T07:28:45;5.10;1.00
318;DHT22;146;53.448;10.228;2023-12-14T07:31:13;5.20;1.00
318;DHT22;146;53.448;10.228;2023-12-14T07:33:45;5.20;1.00
318;DHT22;146;53.448;10.228;2023-12-14T07:36:12;5.30;1.00
318;DHT22;146;53.448;10.228;2023-12-14T07:38:39;5.40;1.00
318;DHT22;146;53.448;10.228;2023-12-14T07:41:05;5.40;1.00
318;DHT22;146;53.448;10.228;2023-12-14T07:43:32;5.40;1.00
318;DHT22;146;53.448;10.228;2023-12-14T07:45:59;5.60;1.00
318;DHT22;146;53.448;10.228;2023-12-14T07:48:27;5.50;1.00
318;DHT22;146;53.448;10.228;2023-12-14T07:50:57;5.30;1.00
318;DHT22;146;53.448;10.228;2023-12-14T07:57:32;5.30;1.00
318;DHT22;146;53.448;10.228;2023-12-14T08:03:47;5.30;1.00
318;DHT22;146;53.448;10.228;2023-12-14T08:06:14;5.40;1.00
318;DHT22;146;53.448;10.228;2023-12-14T08:08:44;5.30;1.00
318;DHT22;146;53.448;10.228;2023-12-14T08:11:16;5.30;1.00
318;DHT22;146;53.448;10.228;2023-12-14T08:13:43;5.20;1.00
318;DHT22;146;53.448;10.228;2023-12-14T08:16:13;5.30;1.00
318;DHT22;146;53.448;10.228;2023-12-14T08:18:42;5.30;1.00
318;DHT22;146;53.448;10.228;2023-12-14T08:21:12;5.20;1.00
318;DHT22;146;53.448;10.228;2023-12-14T08:23:39;5.10;1.00
318;DHT22;146;53.448;10.228;2023-12-14T08:26:09;5.20;1.00
318;DHT22;146;53.448;10.228;2023-12-14T08:28:38;5.30;1.00
318;DHT22;146;53.448;10.228;2023-12-14T08:31:07;5.30;1.00
318;DHT22;146;53.448;10.228;2023-12-14T08:33:36;5.40;1.00
318;DHT22;146;53.448;10.228;2023-12-14T08:36:04;5.40;1.00
318;DHT22;146;53.448;10.228;2023-12-14T08:38:32;5.40;1.00
318;DHT22;146;53.448;10.228;2023-12-14T08:40:59;5.60;1.00
318;DHT22;146;53.448;10.228;2023-12-14T08:43:29;5.50;1.00
318;DHT22;146;53.448;10.228;2023-12-14T08:45:56;5.50;1.00
318;DHT22;146;53.448;10.228;2023-12-14T08:48:23;5.40;1.00
318;DHT22;146;53.448;10.228;2023-12-14T08:50:49;5.50;1.00
318;DHT22;146;53.448;10.228;2023-12-14T08:53:16;5.50;1.00
318;DHT22;146;53.448;10.228;2023-12-14T08:55:44;5.50;1.00
318;DHT22;146;53.448;10.228;2023-12-14T08:58:11;5.50;1.00
318;DHT22;146;53.448;10.228;2023-12-14T09:00:38;5.50;1.00
318;DHT22;146;53.448;10.228;2023-12-14T09:03:05;5.40;1.00
318;DHT22;146;53.448;10.228;2023-12-14T09:05:32;5.40;1.00
318;DHT22;146;53.448;10.228;2023-12-14T09:07:58;5.40;1.00
318;DHT22;146;53.448;10.228;2023-12-14T09:10:25;5.50;1.00
318;DHT22;146;53.448;10.228;2023-12-14T09:12:53;5.50;1.00
318;DHT22;146;53.448;10.228;2023-12-14T09:15:20;5.50;1.00
318;DHT22;146;53.448;10.228;2023-12-14T09:17:47;5.40;1.00
318;DHT22;146;53.448;10.228;2023-12-14T09:20:16;5.40;1.00
318;DHT22;146;53.448;10.228;2023-12-14T09:22:43;5.50;1.00
318;DHT22;146;53.448;10.228;2023-12-14T09:25:10;5.50;1.00
318;DHT22;146;53.448;10.228;2023-12-14T09:27:37;5.50;1.00
318;DHT22;146;53.448;10.228;2023-12-14T09:30:06;5.40;1.00
318;DHT22;146;53.448;10.228;2023-12-14T09:32:34;5.50;1.00
318;DHT22;146;53.448;10.228;2023-12-14T09:35:06;5.50;1.00
318;DHT22;146;53.448;10.228;2023-12-14T09:37:33;5.60;1.00
318;DHT22;146;53.448;10.228;2023-12-14T09:39:59;5.50;1.00
318;DHT22;146;53.448;10.228;2023-12-14T09:42:26;5.60;1.00
318;DHT22;146;53.448;10.228;2023-12-14T09:44:53;5.60;1.00
318;DHT22;146;53.448;10.228;2023-12-14T09:47:23;5.60;1.00
318;DHT22;146;53.448;10.228;2023-12-14T09:49:50;5.60;1.00
318;DHT22;146;53.448;10.228;2023-12-14T09:52:18;5.60;1.00
318;DHT22;146;53.448;10.228;2023-12-14T09:54:45;5.60;1.00
318;DHT22;146;53.448;10.228;2023-12-14T09:57:14;5.70;1.00
318;DHT22;146;53.448;10.228;2023-12-14T09:59:41;5.70;1.00
318;DHT22;146;53.448;10.228;2023-12-14T10:02:09;5.70;1.00
318;DHT22;146;53.448;10.228;2023-12-14T10:04:38;5.60;1.00
318;DHT22;146;53.448;10.228;2023-12-14T10:07:05;5.60;1.00
318;DHT22;146;53.448;10.228;2023-12-14T10:09:32;5.60;1.00
318;DHT22;146;53.448;10.228;2023-12-14T10:12:03;5.60;1.00
318;DHT22;146;53.448;10.228;2023-12-14T10:14:30;5.80;1.00
318;DHT22;146;53.448;10.228;2023-12-14T10:16:58;5.80;1.00
318;DHT22;146;53.448;10.228;2023-12-14T10:19:25;5.70;1.00
318;DHT22;146;53.448;10.228;2023-12-14T10:21:53;5.90;1.00
318;DHT22;146;53.448;10.228;2023-12-14T10:24:20;5.80;1.00
318;DHT22;146;53.448;10.228;2023-12-14T10:26:47;5.80;1.00
318;DHT22;146;53.448;10.228;2023-12-14T10:29:14;5.90;1.00
318;DHT22;146;53.448;10.228;2023-12-14T10:31:42;5.90;1.00
318;DHT22;146;53.448;10.228;2023-12-14T10:34:09;5.90;1.00
318;DHT22;146;53.448;10.228;2023-12-14T10:36:38;6.00;1.00
318;DHT22;146;53.448;10.228;2023-12-14T10:39:07;5.90;1.00
318;DHT22;146;53.448;10.228;2023-12-14T10:41:35;5.80;1.00
318;DHT22;146;53.448;10.228;2023-12-14T10:44:02;5.90;1.00
318;DHT22;146;53.448;10.228;2023-12-14T10:46:29;6.10;1.00
318;DHT22;146;53.448;10.228;2023-12-14T10:48:57;6.20;1.00
318;DHT22;146;53.448;10.228;2023-12-14T10:51:24;6.20;1.00
318;DHT22;146;53.448;10.228;2023-12-14T10:53:52;6.20;1.00
318;DHT22;146;53.448;10.228;2023-12-14T10:56:21;6.20;1.00
318;DHT22;146;53.448;10.228;2023-12-14T10:58:50;6.20;1.00
318;DHT22;146;53.448;10.228;2023-12-14T11:01:19;6.10;1.00
318;DHT22;146;53.448;10.228;2023-12-14T11:03:47;6.10;1.00
318;DHT22;146;53.448;10.228;2023-12-14T11:06:27;6.10;1.00
318;DHT22;146;53.448;10.228;2023-12-14T11:08:58;6.30;1.00
318;DHT22;146;53.448;10.228;2023-12-14T11:11:29;6.20;1.00
318;DHT22;146;53.448;10.228;2023-12-14T11:13:56;6.20;1.00
318;DHT22;146;53.448;10.228;2023-12-14T11:16:23;6.20;1.00
318;DHT22;146;53.448;10.228;2023-12-14T11:19:31;6.10;1.00
318;DHT22;146;53.448;10.228;2023-12-14T11:22:24;6.20;1.00
318;DHT22;146;53.448;10.228;2023-12-14T11:24:53;6.00;1.00
318;DHT22;146;53.448;10.228;2023-12-14T11:27:25;6.10;1.00
318;DHT22;146;53.448;10.228;2023-12-14T11:29:53;6.00;1.00
318;DHT22;146;53.448;10.228;2023-12-14T11:32:22;6.00;1.00
318;DHT22;146;53.448;10.228;2023-12-14T11:34:51;6.00;1.00
318;DHT22;146;53.448;10.228;2023-12-14T11:37:17;6.10;1.00
318;DHT22;146;53.448;10.228;2023-12-14T11:39:45;6.00;1.00
318;DHT22;146;53.448;10.228;2023-12-14T11:42:18;6.10;1.00
318;DHT22;146;53.448;10.228;2023-12-14T11:44:46;6.10;1.00
318;DHT22;146;53.448;10.228;2023-12-14T11:47:13;6.20;1.00
318;DHT22;146;53.448;10.228;2023-12-14T11:49:40;6.40;1.00
318;DHT22;146;53.448;10.228;2023-12-14T11:52:07;6.50;1.00
318;DHT22;146;53.448;10.228;2023-12-14T11:54:34;6.50;1.00
318;DHT22;146;53.448;10.228;2023-12-14T11:57:01;6.60;1.00
318;DHT22;146;53.448;10.228;2023-12-14T11:59:35;6.50;1.00
318;DHT22;146;53.448;10.228;2023-12-14T12:02:04;6.60;1.00
318;DHT22;146;53.448;10.228;2023-12-14T12:04:31;6.70;1.00
318;DHT22;146;53.448;10.228;2023-12-14T12:07:05;6.80;1.00
318;DHT22;146;53.448;10.228;2023-12-14T12:09:36;6.90;1.00
318;DHT22;146;53.448;10.228;2023-12-14T12:12:06;6.90;1.00
318;DHT22;146;53.448;10.228;2023-12-14T12:14:33;7.00;1.00
318;DHT22;146;53.448;10.228;2023-12-14T12:17:00;7.10;1.00
318;DHT22;146;53.448;10.228;2023-12-14T12:19:29;7.00;1.00
318;DHT22;146;53.448;10.228;2023-12-14T12:21:55;6.80;1.00
318;DHT22;146;53.448;10.228;2023-12-14T12:24:22;6.90;1.00
318;DHT22;146;53.448;10.228;2023-12-14T12:26:52;6.80;1.00
318;DHT22;146;53.448;10.228;2023-12-14T12:29:19;6.80;1.00
318;DHT22;146;53.448;10.228;2023-12-14T12:31:46;6.70;1.00
318;DHT22;146;53.448;10.228;2023-12-14T12:34:13;6.60;1.00
318;DHT22;146;53.448;10.228;2023-12-14T12:36:46;6.60;1.00
318;DHT22;146;53.448;10.228;2023-12-14T12:39:12;6.50;1.00
318;DHT22;146;53.448;10.228;2023-12-14T12:41:39;6.50;1.00
318;DHT22;146;53.448;10.228;2023-12-14T12:44:06;6.30;1.00
318;DHT22;146;53.448;10.228;2023-12-14T12:46:34;6.30;1.00
318;DHT22;146;53.448;10.228;2023-12-14T12:49:01;6.30;1.00
318;DHT22;146;53.448;10.228;2023-12-14T12:51:29;6.20;1.00
318;DHT22;146;53.448;10.228;2023-12-14T12:53:58;6.30;1.00
318;DHT22;146;53.448;10.228;2023-12-14T12:56:26;6.30;1.00
318;DHT22;146;53.448;10.228;2023-12-14T12:58:53;6.30;1.00
318;DHT22;146;53.448;10.228;2023-12-14T13:01:20;6.20;1.00
318;DHT22;146;53.448;10.228;2023-12-14T13:03:53;6.10;1.00
318;DHT22;146;53.448;10.228;2023-12-14T13:06:20;6.00;1.00
318;DHT22;146;53.448;10.228;2023-12-14T13:11:59;6.00;1.00
318;DHT22;146;53.448;10.228;2023-12-14T13:17:42;6.00;1.00
318;DHT22;146;53.448;10.228;2023-12-14T13:20:15;6.00;1.00
318;DHT22;146;53.448;10.228;2023-12-14T13:22:43;6.10;1.00
318;DHT22;146;53.448;10.228;2023-12-14T13:25:10;6.00;1.00
318;DHT22;146;53.448;10.228;2023-12-14T13:27:38;6.00;1.00
318;DHT22;146;53.448;10.228;2023-12-14T13:30:10;6.00;1.00
318;DHT22;146;53.448;10.228;2023-12-14T13:36:29;6.00;1.00
318;DHT22;146;53.448;10.228;2023-12-14T13:38:56;6.10;1.00
318;DHT22;146;53.448;10.228;2023-12-14T13:41:23;6.10;1.00
318;DHT22;146;53.448;10.228;2023-12-14T13:43:51;6.10;1.00
318;DHT22;146;53.448;10.228;2023-12-14T13:46:18;6.20;1.00
318;DHT22;146;53.448;10.228;2023-12-14T13:48:44;6.20;1.00
318;DHT22;146;53.448;10.228;2023-12-14T13:51:14;6.20;1.00
318;DHT22;146;53.448;10.228;2023-12-14T13:53:41;6.30;1.00
318;DHT22;146;53.448;10.228;2023-12-14T13:56:10;6.30;1.00
318;DHT22;146;53.448;10.228;2023-12-14T13:58:44;6.20;1.00
318;DHT22;146;53.448;10.228;2023-12-14T14:01:12;6.00;1.00
318;DHT22;146;53.448;10.228;2023-12-14T14:03:45;6.00;1.00
318;DHT22;146;53.448;10.228;2023-12-14T14:06:15;6.10;1.00
318;DHT22;146;53.448;10.228;2023-12-14T14:08:42;6.10;1.00
318;DHT22;146;53.448;10.228;2023-12-14T14:11:09;6.10;1.00
318;DHT22;146;53.448;10.228;2023-12-14T14:13:36;6.10;1.00
318;DHT22;146;53.448;10.228;2023-12-14T14:16:03;6.00;1.00
318;DHT22;146;53.448;10.228;2023-12-14T14:18:35;5.90;1.00
318;DHT22;146;53.448;10.228;2023-12-14T14:21:02;5.90;1.00
318;DHT22;146;53.448;10.228;2023-12-14T14:23:33;6.00;1.00
318;DHT22;146;53.448;10.228;2023-12-14T14:26:00;5.90;1.00
318;DHT22;146;53.448;10.228;2023-12-14T14:28:26;5.90;1.00
318;DHT22;146;53.448;10.228;2023-12-14T14:30:53;5.90;1.00
318;DHT22;146;53.448;10.228;2023-12-14T14:33:20;5.80;1.00
318;DHT22;146;53.448;10.228;2023-12-14T14:35:48;5.80;1.00
318;DHT22;146;53.448;10.228;2023-12-14T14:38:16;5.80;1.00
318;DHT22;146;53.448;10.228;2023-12-14T14:40:46;5.70;1.00
318;DHT22;146;53.448;10.228;2023-12-14T14:43:14;5.70;1.00
318;DHT22;146;53.448;10.228;2023-12-14T14:45:40;5.80;1.00
318;DHT22;146;53.448;10.228;2023-12-14T14:48:14;5.80;1.00
318;DHT22;146;53.448;10.228;2023-12-14T14:50:47;5.70;1.00
318;DHT22;146;53.448;10.228;2023-12-14T14:53:14;5.60;1.00
318;DHT22;146;53.448;10.228;2023-12-14T14:55:41;5.60;1.00
318;DHT22;146;53.448;10.228;2023-12-14T14:58:20;5.50;1.00
318;DHT22;146;53.448;10.228;2023-12-14T15:00:50;5.40;1.00
318;DHT22;146;53.448;10.228;2023-12-14T15:03:19;5.30;1.00
318;DHT22;146;53.448;10.228;2023-12-14T15:05:48;5.30;1.00
318;DHT22;146;53.448;10.228;2023-12-14T15:08:15;5.30;1.00
318;DHT22;146;53.448;10.228;2023-12-14T15:10:42;5.40;1.00
318;DHT22;146;53.448;10.228;2023-12-14T15:13:15;5.30;1.00
318;DHT22;146;53.448;10.228;2023-12-14T15:15:42;5.40;1.00
318;DHT22;146;53.448;10.228;2023-12-14T15:18:12;5.40;1.00
318;DHT22;146;53.448;10.228;2023-12-14T15:20:39;5.40;1.00
318;DHT22;146;53.448;10.228;2023-12-14T15:23:07;5.40;1.00
318;DHT22;146;53.448;10.228;2023-12-14T15:25:34;5.40;1.00
318;DHT22;146;53.448;10.228;2023-12-14T15:28:01;5.40;1.00
318;DHT22;146;53.448;10.228;2023-12-14T15:30:28;5.50;1.00
318;DHT22;146;53.448;10.228;2023-12-14T15:32:55;5.50;1.00
318;DHT22;146;53.448;10.228;2023-12-14T15:35:22;5.60;1.00
318;DHT22;146;53.448;10.228;2023-12-14T15:37:52;5.60;1.00
318;DHT22;146;53.448;10.228;2023-12-14T15:40:20;5.60;1.00
318;DHT22;146;53.448;10.228;2023-12-14T15:42:47;5.60;1.00
318;DHT22;146;53.448;10.228;2023-12-14T15:45:19;5.70;1.00
318;DHT22;146;53.448;10.228;2023-12-14T15:47:46;5.70;1.00
318;DHT22;146;53.448;10.228;2023-12-14T15:50:13;5.70;1.00
318;DHT22;146;53.448;10.228;2023-12-14T15:52:40;5.80;1.00
318;DHT22;146;53.448;10.228;2023-12-14T15:55:07;5.70;1.00
318;DHT22;146;53.448;10.228;2023-12-14T15:57:35;5.70;1.00
318;DHT22;146;53.448;10.228;2023-12-14T16:00:03;5.70;1.00
318;DHT22;146;53.448;10.228;2023-12-14T16:02:30;5.60;1.00
318;DHT22;146;53.448;10.228;2023-12-14T16:04:57;5.50;1.00
318;DHT22;146;53.448;10.228;2023-12-14T16:07:24;5.50;1.00
318;DHT22;146;53.448;10.228;2023-12-14T16:09:51;5.50;1.00
318;DHT22;146;53.448;10.228;2023-12-14T16:12:17;5.50;1.00
318;DHT22;146;53.448;10.228;2023-12-14T16:14:46;5.50;1.00
318;DHT22;146;53.448;10.228;2023-12-14T16:17:13;5.50;1.00
318;DHT22;146;53.448;10.228;2023-12-14T16:19:39;5.50;1.00
318;DHT22;146;53.448;10.228;2023-12-14T16:22:06;5.40;1.00
318;DHT22;146;53.448;10.228;2023-12-14T16:24:33;5.40;1.00
318;DHT22;146;53.448;10.228;2023-12-14T16:27:00;5.40;1.00
318;DHT22;146;53.448;10.228;2023-12-14T16:29:27;5.50;1.00
318;DHT22;146;53.448;10.228;2023-12-14T16:31:55;5.40;1.00
318;DHT22;146;53.448;10.228;2023-12-14T16:34:22;5.40;1.00
318;DHT22;146;53.448;10.228;2023-12-14T16:36:49;5.40;1.00
318;DHT22;146;53.448;10.228;2023-12-14T16:39:19;5.50;1.00
318;DHT22;146;53.448;10.228;2023-12-14T16:41:48;5.50;1.00
318;DHT22;146;53.448;10.228;2023-12-14T16:44:15;5.40;1.00
318;DHT22;146;53.448;10.228;2023-12-14T16:46:42;5.20;1.00
318;DHT22;146;53.448;10.228;2023-12-14T16:49:10;5.10;1.00
318;DHT22;146;53.448;10.228;2023-12-14T16:51:37;5.10;1.00
318;DHT22;146;53.448;10.228;2023-12-14T16:54:04;5.00;1.00
318;DHT22;146;53.448;10.228;2023-12-14T16:56:32;4.80;1.00
318;DHT22;146;53.448;10.228;2023-12-14T16:58:59;4.80;1.00
318;DHT22;146;53.448;10.228;2023-12-14T17:01:26;4.60;1.00
318;DHT22;146;53.448;10.228;2023-12-14T17:03:53;4.50;1.00
318;DHT22;146;53.448;10.228;2023-12-14T17:06:23;4.40;1.00
318;DHT22;146;53.448;10.228;2023-12-14T17:08:50;4.40;1.00
318;DHT22;146;53.448;10.228;2023-12-14T17:11:17;4.40;1.00
318;DHT22;146;53.448;10.228;2023-12-14T17:13:47;4.40;1.00
318;DHT22;146;53.448;10.228;2023-12-14T17:16:14;4.40;1.00